Deatsville, Kentucky
Current Conditions -  °F | °C
As of 2:56 AM on Thursday 29 Jan 2015 (Local Time) from KSDF Reporting Station
Overcast Overcast  
Wind Chill: -1°   Ceiling: 23000
Heat Index:   Visibility: 10mi
Dew Point: -7°   Wind: 9mph
Humidity: 48%   Direction: 140°SE
Pressure: 30.03"   Gusts: NA
Location:  37.9212°N, 85.4864°W
Report Text: KSDF 290756Z 14008KT 10SM FEW120 OVC230 03/M07 A3003 RMK AO2 SLP171 T00281072
Loading
Personal Weather Stations






























Interactive Weather Map New forecast layout! Learn more

10-Day Weather Forecast

Advertisements
Track Severe Weather on mobile